Time;durP1;ratioP1;P1;durP2;ratioP2;P2;SDS_P1;SDS_P2;PMS_P1;PMS_P2;Temp;Humidity;BMP_temperature;BMP_pressure;BME280_temperature;BME280_humidity;BME280_pressure;Samples;Min_cycle;Max_cycle;Signal;HPM_P1;HPM_P2
2022/04/26 03:36:34;;;;;;;;;;;10.10;99.90;;;;;;4982274;28;20020;-82
2022/04/26 03:39:01;;;;;;;;;;;10.10;99.90;;;;;;4990262;28;19925;-80
2022/04/26 03:41:29;;;;;;;;;;;10.10;99.90;;;;;;4994233;28;19933;-77
2022/04/26 03:43:56;;;;;;;;;;;10.10;99.90;;;;;;4990977;28;19933;-80
2022/04/26 03:46:24;;;;;;;;;;;10.00;99.90;;;;;;4980321;28;19926;-82
2022/04/26 03:48:52;;;;;;;;;;;10.00;99.90;;;;;;4995075;28;19949;-82
2022/04/26 03:51:19;;;;;;;;;;;10.10;99.90;;;;;;4995498;28;19929;-80
2022/04/26 03:53:47;;;;;;;;;;;10.00;99.90;;;;;;4991057;28;19936;-82
2022/04/26 03:56:14;;;;;;;;;;;10.00;99.90;;;;;;4989846;28;19926;-81
2022/04/26 03:58:41;;;;;;;;;;;10.00;99.90;;;;;;4989253;28;19926;-82
2022/04/26 04:01:09;;;;;;;;;;;10.00;99.90;;;;;;4971303;28;20196;-79
2022/04/26 04:03:37;;;;;;;;;;;10.00;99.90;;;;;;4991716;28;19926;-80
2022/04/26 04:06:06;;;;;;;;;;;10.00;99.90;;;;;;4986254;28;19926;-80
2022/04/26 04:08:33;;;;;;;;;;;10.00;99.90;;;;;;4990577;28;19980;-79
2022/04/26 04:11:00;;;;;;;;;;;10.00;99.90;;;;;;4993011;28;19925;-79
2022/04/26 04:13:26;;;;;;;;;;;10.00;99.90;;;;;;4997418;28;19934;-80
2022/04/26 04:15:53;;;;;;;;;;;10.00;99.90;;;;;;4986689;28;19926;-79
2022/04/26 04:21:07;;;;;;;;;;;10.00;99.90;;;;;;4995299;28;19922;-77
2022/04/26 04:23:36;;;;;;;;;;;10.00;99.90;;;;;;4989947;28;19930;-78
2022/04/26 04:26:03;;;;;;;;;;;10.00;99.90;;;;;;4994686;28;19933;-77
2022/04/26 04:28:30;;;;;;;;;;;9.90;99.90;;;;;;4991306;28;20355;-77
2022/04/26 04:30:56;;;;;;;;;;;9.90;99.90;;;;;;4986511;28;19929;-77
2022/04/26 04:33:23;;;;;;;;;;;9.90;99.90;;;;;;4972743;28;19930;-76
2022/04/26 04:35:50;;;;;;;;;;;9.90;99.90;;;;;;4992659;28;19932;-76
2022/04/26 04:38:19;;;;;;;;;;;9.90;99.90;;;;;;4985745;28;20285;-79
2022/04/26 04:40:45;;;;;;;;;;;9.90;99.90;;;;;;4988216;28;19969;-77
2022/04/26 04:43:13;;;;;;;;;;;9.90;99.90;;;;;;4968818;28;20215;-78
2022/04/26 04:45:41;;;;;;;;;;;9.90;99.90;;;;;;4987981;28;19960;-76
2022/04/26 04:48:08;;;;;;;;;;;9.90;99.90;;;;;;4990015;28;19934;-76
2022/04/26 04:50:35;;;;;;;;;;;9.90;99.90;;;;;;4995905;28;19926;-77
2022/04/26 04:53:02;;;;;;;;;;;9.90;99.90;;;;;;5003976;28;20036;-78
2022/04/26 04:55:30;;;;;;;;;;;9.90;99.90;;;;;;4971809;28;20166;-76
2022/04/26 04:57:57;;;;;;;;;;;9.90;99.90;;;;;;4998946;28;19941;-77
2022/04/26 05:00:24;;;;;;;;;;;9.90;99.90;;;;;;4983102;28;19956;-79
2022/04/26 05:02:51;;;;;;;;;;;9.80;99.90;;;;;;4982053;28;19957;-78
2022/04/26 05:05:18;;;;;;;;;;;9.90;99.90;;;;;;4979515;28;19930;-78
2022/04/26 05:07:45;;;;;;;;;;;9.90;99.90;;;;;;4979217;28;19926;-77
2022/04/26 05:10:13;;;;;;;;;;;9.80;99.90;;;;;;4978036;28;19926;-77
2022/04/26 05:12:41;;;;;;;;;;;9.80;99.90;;;;;;4996897;28;19926;-78
2022/04/26 05:15:09;;;;;;;;;;;9.80;99.90;;;;;;4993847;28;19949;-79
2022/04/26 05:17:35;;;;;;;;;;;9.80;99.90;;;;;;4991797;28;19933;-77
2022/04/26 05:20:04;;;;;;;;;;;9.80;99.90;;;;;;4999331;28;19934;-78
2022/04/26 05:22:30;;;;;;;;;;;9.80;99.90;;;;;;4989123;28;19930;-77
2022/04/26 05:24:57;;;;;;;;;;;9.80;99.90;;;;;;4991839;28;19926;-78
2022/04/26 05:27:24;;;;;;;;;;;9.80;99.90;;;;;;4984129;28;20009;-79
2022/04/26 05:29:53;;;;;;;;;;;9.80;99.90;;;;;;4978083;28;19926;-78
2022/04/26 05:32:20;;;;;;;;;;;9.80;99.90;;;;;;5002040;28;20273;-78
2022/04/26 05:34:48;;;;;;;;;;;9.80;99.90;;;;;;4994952;28;20521;-79
2022/04/26 05:37:15;;;;;;;;;;;9.80;99.90;;;;;;4997247;28;19925;-78
2022/04/26 05:39:44;;;;;;;;;;;9.80;99.90;;;;;;4999132;28;19926;-77
2022/04/26 05:42:11;;;;;;;;;;;9.80;99.90;;;;;;4993089;28;19981;-78
2022/04/26 05:44:39;;;;;;;;;;;9.80;99.90;;;;;;4995856;28;19981;-77
2022/04/26 05:47:08;;;;;;;;;;;9.80;99.90;;;;;;4994650;28;19925;-79
2022/04/26 05:49:35;;;;;;;;;;;9.80;99.90;;;;;;4987448;28;19926;-77
2022/04/26 05:52:02;;;;;;;;;;;9.80;99.90;;;;;;4981829;28;20199;-80
2022/04/26 05:54:29;;;;;;;;;;;9.80;99.90;;;;;;4980491;28;20037;-77
2022/04/26 05:56:55;;;;;;;;;;;9.70;99.90;;;;;;4993465;28;20404;-78
2022/04/26 05:59:23;;;;;;;;;;;9.70;99.90;;;;;;4978283;28;19936;-78
2022/04/26 06:01:50;;;;;;;;;;;9.70;99.90;;;;;;4975232;28;19926;-79
2022/04/26 06:04:19;;;;;;;;;;;9.80;99.90;;;;;;4997187;28;20434;-79
2022/04/26 06:06:46;;;;;;;;;;;9.70;99.90;;;;;;4996110;28;19926;-79
2022/04/26 06:09:14;;;;;;;;;;;9.70;99.90;;;;;;4986026;28;19933;-78
2022/04/26 06:11:41;;;;;;;;;;;9.70;99.90;;;;;;4998794;28;19925;-79
2022/04/26 06:14:09;;;;;;;;;;;9.70;99.90;;;;;;4993874;28;20066;-79
2022/04/26 06:16:36;;;;;;;;;;;9.70;99.90;;;;;;4971680;28;19941;-77
2022/04/26 06:19:03;;;;;;;;;;;9.70;99.90;;;;;;4987233;28;19944;-79
2022/04/26 06:21:32;;;;;;;;;;;9.70;99.90;;;;;;4994199;28;19932;-78
2022/04/26 06:23:59;;;;;;;;;;;9.70;99.90;;;;;;4990762;28;20009;-77
2022/04/26 06:26:25;;;;;;;;;;;9.70;99.90;;;;;;4991442;28;19950;-78
2022/04/26 06:28:52;;;;;;;;;;;9.70;99.90;;;;;;5013131;23;19930;-89
2022/04/26 06:31:19;;;;;;;;;;;9.70;99.90;;;;;;4971421;28;19933;-88
2022/04/26 06:33:46;;;;;;;;;;;9.70;99.90;;;;;;4954258;28;20468;-88
2022/04/26 06:36:13;;;;;;;;;;;9.70;99.90;;;;;;4973690;28;19933;-89
2022/04/26 06:38:41;;;;;;;;;;;9.70;99.90;;;;;;4966049;28;20009;-89
2022/04/26 06:41:08;;;;;;;;;;;9.70;99.90;;;;;;4971265;28;19941;-88
2022/04/26 06:43:36;;;;;;;;;;;9.70;99.90;;;;;;4952532;28;19926;-89
2022/04/26 06:46:03;;;;;;;;;;;9.70;99.90;;;;;;4948027;28;19940;-89
2022/04/26 06:48:31;;;;;;;;;;;9.70;99.90;;;;;;4953491;28;19926;-89
2022/04/26 06:50:57;;;;;;;;;;;9.70;99.90;;;;;;4973371;28;19981;-89
2022/04/26 06:53:24;;;;;;;;;;;9.70;99.90;;;;;;4953694;28;19940;-89
2022/04/26 06:55:53;;;;;;;;;;;9.70;99.90;;;;;;4954363;28;20028;-87
2022/04/26 06:58:20;;;;;;;;;;;9.70;99.90;;;;;;4968893;28;20194;-88
2022/04/26 07:00:48;;;;;;;;;;;9.70;99.90;;;;;;4959102;28;20046;-88
2022/04/26 07:03:15;;;;;;;;;;;9.70;99.90;;;;;;4952140;28;20337;-89
2022/04/26 07:05:42;;;;;;;;;;;9.70;99.90;;;;;;4952241;28;19930;-88
2022/04/26 07:08:09;;;;;;;;;;;9.70;99.90;;;;;;4965889;28;19926;-88
2022/04/26 07:10:38;;;;;;;;;;;9.70;99.90;;;;;;4949783;28;20206;-88
2022/04/26 07:13:06;;;;;;;;;;;9.70;99.90;;;;;;4947220;28;19955;-89
2022/04/26 07:15:33;;;;;;;;;;;9.70;99.90;;;;;;4972551;28;19934;-88
2022/04/26 07:18:00;;;;;;;;;;;9.70;99.90;;;;;;4958129;28;19934;-89
2022/04/26 07:20:30;;;;;;;;;;;9.70;99.90;;;;;;4971514;28;19968;-88
2022/04/26 07:22:57;;;;;;;;;;;9.70;99.90;;;;;;4970651;28;19927;-88
2022/04/26 07:25:24;;;;;;;;;;;9.70;99.90;;;;;;4967028;28;19926;-88
2022/04/26 07:27:51;;;;;;;;;;;9.70;99.90;;;;;;4969930;28;20037;-87
2022/04/26 07:30:19;;;;;;;;;;;9.70;99.90;;;;;;4947389;28;19933;-89
2022/04/26 07:35:30;;;;;;;;;;;9.60;99.90;;;;;;4967645;28;20016;-88
2022/04/26 07:38:04;;;;;;;;;;;9.70;99.90;;;;;;4953120;28;19932;-89
2022/04/26 07:40:32;;;;;;;;;;;9.60;99.90;;;;;;4961120;28;19968;-89
2022/04/26 07:42:59;;;;;;;;;;;9.70;99.90;;;;;;4967656;28;20219;-89
2022/04/26 07:45:27;;;;;;;;;;;9.60;99.90;;;;;;4967690;28;19936;-89
2022/04/26 07:47:54;;;;;;;;;;;9.70;99.90;;;;;;4952596;28;19926;-88
2022/04/26 07:50:21;;;;;;;;;;;9.70;99.90;;;;;;4971695;28;19998;-89
2022/04/26 07:52:48;;;;;;;;;;;9.60;99.90;;;;;;4969640;28;19985;-88
2022/04/26 07:55:16;;;;;;;;;;;9.60;99.90;;;;;;4954452;28;19926;-89
2022/04/26 07:57:43;;;;;;;;;;;9.60;99.90;;;;;;4951301;28;19930;-88
2022/04/26 08:00:11;;;;;;;;;;;9.60;99.90;;;;;;4953806;28;20377;-87
2022/04/26 08:02:42;;;;;;;;;;;9.60;99.90;;;;;;4971755;28;19964;-89
2022/04/26 08:05:09;;;;;;;;;;;9.70;99.90;;;;;;4966280;28;19929;-88
2022/04/26 08:07:39;;;;;;;;;;;9.70;99.90;;;;;;4964003;28;19962;-88
2022/04/26 08:10:07;;;;;;;;;;;9.70;99.90;;;;;;4968162;28;20057;-88
2022/04/26 08:12:34;;;;;;;;;;;9.60;99.90;;;;;;4951291;28;19993;-88
2022/04/26 08:15:01;;;;;;;;;;;9.60;99.90;;;;;;4949523;28;19934;-88
2022/04/26 08:17:28;;;;;;;;;;;9.60;99.90;;;;;;4955358;28;19933;-89
2022/04/26 08:19:56;;;;;;;;;;;9.70;99.90;;;;;;4969486;28;19934;-88
2022/04/26 08:22:23;;;;;;;;;;;9.70;99.90;;;;;;4970330;28;20016;-88
2022/04/26 08:27:40;;;;;;;;;;;9.60;99.90;;;;;;4907075;28;19929;-88
2022/04/26 08:30:07;;;;;;;;;;;9.60;99.90;;;;;;4971083;28;19960;-89
2022/04/26 08:32:42;;;;;;;;;;;9.70;99.90;;;;;;4954955;28;19926;-88
2022/04/26 08:35:11;;;;;;;;;;;9.70;99.90;;;;;;4978160;28;19933;-88
2022/04/26 08:37:38;;;;;;;;;;;9.70;99.90;;;;;;4953464;28;19926;-87
2022/04/26 08:40:07;;;;;;;;;;;9.70;99.90;;;;;;4970803;28;20373;-88
2022/04/26 08:42:35;;;;;;;;;;;9.70;99.90;;;;;;4962639;28;19932;-89
2022/04/26 08:45:04;;;;;;;;;;;9.70;99.90;;;;;;4971601;28;19949;-87
2022/04/26 08:53:02;;;;;;;;;;;9.70;99.90;;;;;;4972407;28;19936;-88
2022/04/26 08:55:29;;;;;;;;;;;9.70;99.90;;;;;;4971377;28;20453;-88
2022/04/26 08:57:55;;;;;;;;;;;9.70;99.90;;;;;;4974085;28;20028;-89
2022/04/26 09:00:22;;;;;;;;;;;9.70;99.90;;;;;;4975605;28;19926;-89
2022/04/26 09:03:00;;;;;;;;;;;9.70;99.90;;;;;;4973737;28;19945;-88
2022/04/26 09:05:28;;;;;;;;;;;9.70;99.90;;;;;;4962853;28;20553;-89
2022/04/26 09:07:55;;;;;;;;;;;9.70;99.90;;;;;;4972358;28;19937;-89
2022/04/26 09:10:23;;;;;;;;;;;9.70;99.90;;;;;;4954396;28;19930;-89
2022/04/26 09:13:04;;;;;;;;;;;9.70;99.90;;;;;;4953838;28;19926;-89
2022/04/26 09:15:36;;;;;;;;;;;9.70;99.90;;;;;;4968839;28;19926;-89
2022/04/26 09:18:28;;;;;;;;;;;9.70;99.90;;;;;;4972315;28;20445;-88
2022/04/26 09:20:58;;;;;;;;;;;9.70;99.90;;;;;;4955224;28;20028;-86
2022/04/26 09:23:26;;;;;;;;;;;9.70;99.90;;;;;;4972206;28;19926;-88
2022/04/26 09:25:54;;;;;;;;;;;9.70;99.90;;;;;;4976416;28;20366;-88
2022/04/26 09:28:25;;;;;;;;;;;9.70;99.90;;;;;;4953818;28;19930;-88
2022/04/26 09:30:53;;;;;;;;;;;9.70;99.90;;;;;;4948758;28;19926;-88
2022/04/26 09:33:36;;;;;;;;;;;9.70;99.90;;;;;;4956173;28;19933;-89
2022/04/26 09:36:06;;;;;;;;;;;9.70;99.90;;;;;;4954740;28;19934;-89
2022/04/26 09:38:34;;;;;;;;;;;9.70;99.90;;;;;;4968942;28;19930;-88
2022/04/26 09:41:01;;;;;;;;;;;9.80;99.90;;;;;;4971906;28;20020;-87
2022/04/26 09:43:29;;;;;;;;;;;9.80;99.90;;;;;;4990084;28;21285;-89
2022/04/26 09:45:57;;;;;;;;;;;9.70;99.90;;;;;;4953096;28;19973;-88
2022/04/26 09:48:27;;;;;;;;;;;9.70;99.90;;;;;;4978078;28;19930;-89
2022/04/26 09:50:54;;;;;;;;;;;9.80;99.90;;;;;;4975718;28;19980;-88
2022/04/26 09:53:23;;;;;;;;;;;9.70;99.90;;;;;;4958569;28;19926;-89
2022/04/26 09:55:50;;;;;;;;;;;9.80;99.90;;;;;;4963030;28;19927;-88
2022/04/26 09:58:18;;;;;;;;;;;9.70;99.90;;;;;;4970157;28;19934;-89
2022/04/26 10:00:47;;;;;;;;;;;9.70;99.90;;;;;;4951606;28;19926;-88
2022/04/26 10:03:16;;;;;;;;;;;9.70;99.90;;;;;;4949328;28;19937;-88
2022/04/26 10:05:45;;;;;;;;;;;9.70;99.90;;;;;;4959294;28;19961;-87
2022/04/26 10:08:14;;;;;;;;;;;9.80;99.90;;;;;;4969314;28;19929;-88
2022/04/26 10:10:43;;;;;;;;;;;9.80;99.90;;;;;;4975687;28;19934;-88
2022/04/26 10:13:32;;;;;;;;;;;9.80;99.90;;;;;;4968297;28;20365;-88
2022/04/26 10:16:00;;;;;;;;;;;9.70;99.90;;;;;;4967925;28;20013;-87
2022/04/26 10:18:31;;;;;;;;;;;9.80;99.90;;;;;;4970760;28;19973;-87
2022/04/26 10:20:58;;;;;;;;;;;9.80;99.90;;;;;;4971337;28;19933;-87
2022/04/26 10:23:25;;;;;;;;;;;9.80;99.90;;;;;;4968350;28;20132;-88
2022/04/26 10:26:11;;;;;;;;;;;9.80;99.90;;;;;;4961596;28;19926;-88
2022/04/26 10:28:50;;;;;;;;;;;9.80;99.90;;;;;;4970052;28;19933;-87
2022/04/26 10:31:18;;;;;;;;;;;9.80;99.90;;;;;;4945211;28;20409;-87
2022/04/26 10:33:46;;;;;;;;;;;9.80;99.90;;;;;;4969963;28;19926;-88
2022/04/26 10:36:31;;;;;;;;;;;9.80;99.90;;;;;;4972597;28;19960;-88
2022/04/26 10:39:17;;;;;;;;;;;9.80;99.90;;;;;;4950748;28;19926;-88
2022/04/26 10:41:45;;;;;;;;;;;9.80;99.90;;;;;;4967123;28;20410;-88
2022/04/26 10:44:39;;;;;;;;;;;9.80;99.90;;;;;;4949929;28;19926;-87
2022/04/26 10:47:26;;;;;;;;;;;9.80;99.90;;;;;;4959947;28;20420;-85
2022/04/26 10:49:54;;;;;;;;;;;9.80;99.90;;;;;;4977989;28;19930;-86
2022/04/26 10:52:34;;;;;;;;;;;9.80;99.90;;;;;;4956609;28;19926;-88
2022/04/26 10:55:03;;;;;;;;;;;9.80;99.90;;;;;;4972635;28;19958;-88
2022/04/26 10:57:31;;;;;;;;;;;9.80;99.90;;;;;;4956288;28;20048;-88
2022/04/26 10:59:59;;;;;;;;;;;9.80;99.90;;;;;;4967086;28;20409;-86
2022/04/26 11:02:29;;;;;;;;;;;9.80;99.90;;;;;;4961584;28;20407;-88
2022/04/26 11:04:56;;;;;;;;;;;9.90;99.90;;;;;;4955234;28;19934;-88
2022/04/26 11:07:25;;;;;;;;;;;9.90;99.90;;;;;;4970646;28;19933;-87
2022/04/26 11:09:54;;;;;;;;;;;9.90;99.90;;;;;;4966806;28;19926;-88
2022/04/26 11:12:21;;;;;;;;;;;9.90;99.90;;;;;;4968908;28;20384;-87
2022/04/26 11:14:49;;;;;;;;;;;9.90;99.90;;;;;;4949562;28;19934;-87
2022/04/26 11:17:16;;;;;;;;;;;9.90;99.90;;;;;;4972018;28;19941;-88
2022/04/26 11:19:49;;;;;;;;;;;9.90;99.90;;;;;;4977133;28;19937;-87
2022/04/26 11:22:16;;;;;;;;;;;10.00;99.90;;;;;;4972449;28;19926;-86
2022/04/26 11:30:22;;;;;;;;;;;10.00;99.90;;;;;;4976757;28;19922;-88
2022/04/26 11:32:49;;;;;;;;;;;10.00;99.90;;;;;;4965672;28;19930;-88
2022/04/26 11:35:19;;;;;;;;;;;10.00;99.90;;;;;;4973173;28;19933;-88
2022/04/26 11:37:46;;;;;;;;;;;10.10;99.90;;;;;;4968225;28;19930;-88
2022/04/26 11:40:21;;;;;;;;;;;10.10;99.90;;;;;;4948222;28;19926;-87
2022/04/26 11:42:49;;;;;;;;;;;10.10;99.90;;;;;;4946453;28;20001;-88
2022/04/26 11:45:16;;;;;;;;;;;10.10;99.90;;;;;;4969119;28;20024;-87
2022/04/26 11:47:44;;;;;;;;;;;10.20;99.90;;;;;;4958630;28;19926;-87
2022/04/26 11:50:13;;;;;;;;;;;10.20;99.90;;;;;;4968750;28;20012;-87
2022/04/26 11:52:42;;;;;;;;;;;10.20;99.90;;;;;;4952910;28;19931;-86
2022/04/26 11:55:18;;;;;;;;;;;10.20;99.90;;;;;;4965692;28;20004;-86
2022/04/26 11:57:46;;;;;;;;;;;10.20;99.90;;;;;;4954503;28;20017;-88
2022/04/26 12:00:13;;;;;;;;;;;10.30;99.90;;;;;;4975041;28;19929;-86
2022/04/26 12:02:41;;;;;;;;;;;10.30;99.90;;;;;;4976318;28;19936;-85
2022/04/26 12:05:08;;;;;;;;;;;10.30;99.90;;;;;;4983109;28;19914;-89
2022/04/26 12:07:36;;;;;;;;;;;10.30;99.90;;;;;;4976486;28;19910;-88
2022/04/26 12:10:24;;;;;;;;;;;10.30;99.90;;;;;;4981478;28;19932;-88
2022/04/26 12:12:55;;;;;;;;;;;10.30;99.90;;;;;;4983588;28;19910;-88
2022/04/26 12:15:24;;;;;;;;;;;10.30;99.90;;;;;;4990179;28;19950;-89
2022/04/26 12:18:02;;;;;;;;;;;10.30;99.90;;;;;;4970254;28;19950;-89
2022/04/26 12:20:29;;;;;;;;;;;10.30;99.90;;;;;;4993141;28;19941;-90
2022/04/26 12:22:57;;;;;;;;;;;10.30;99.90;;;;;;4977655;28;19930;-90
2022/04/26 12:25:25;;;;;;;;;;;10.30;99.90;;;;;;4988820;28;19926;-88
2022/04/26 12:28:01;;;;;;;;;;;10.30;99.90;;;;;;5001425;23;20015;-77
2022/04/26 12:30:29;;;;;;;;;;;10.30;99.90;;;;;;4996162;28;19926;-77
2022/04/26 12:32:56;;;;;;;;;;;10.30;99.90;;;;;;4992422;28;19940;-79
2022/04/26 12:35:23;;;;;;;;;;;10.30;99.90;;;;;;4996174;28;19932;-78
2022/04/26 12:38:03;;;;;;;;;;;10.30;99.90;;;;;;5002270;28;19931;-78
2022/04/26 12:40:31;;;;;;;;;;;10.20;99.90;;;;;;4991698;28;20013;-79
2022/04/26 12:42:58;;;;;;;;;;;10.20;99.90;;;;;;4995956;28;20020;-79
2022/04/26 12:45:25;;;;;;;;;;;10.20;99.90;;;;;;4999272;28;19926;-78
2022/04/26 12:50:48;;;;;;;;;;;10.20;99.90;;;;;;4974896;28;20388;-79
2022/04/26 12:53:22;;;;;;;;;;;10.20;99.90;;;;;;4995389;28;19926;-78
2022/04/26 12:55:50;;;;;;;;;;;10.20;99.90;;;;;;4994914;28;19984;-79
2022/04/26 12:58:18;;;;;;;;;;;10.20;99.90;;;;;;4971950;28;19944;-78
2022/04/26 13:00:45;;;;;;;;;;;10.20;99.90;;;;;;4998258;28;19972;-77
2022/04/26 13:03:13;;;;;;;;;;;10.20;99.90;;;;;;4981970;28;20027;-80
2022/04/26 13:05:41;;;;;;;;;;;10.20;99.90;;;;;;4982528;28;19926;-79
2022/04/26 13:08:08;;;;;;;;;;;10.20;99.90;;;;;;4974175;28;19940;-79
2022/04/26 13:10:35;;;;;;;;;;;10.20;99.90;;;;;;4974148;28;19934;-79
2022/04/26 13:13:05;;;;;;;;;;;10.20;99.90;;;;;;4975593;28;19930;-79
2022/04/26 13:15:32;;;;;;;;;;;10.20;99.90;;;;;;4985980;28;19934;-78
2022/04/26 13:17:59;;;;;;;;;;;10.20;99.90;;;;;;4992676;28;19925;-79
2022/04/26 13:20:27;;;;;;;;;;;10.20;99.90;;;;;;4989766;28;19993;-77
2022/04/26 13:22:54;;;;;;;;;;;10.20;99.90;;;;;;4994699;28;19976;-79
2022/04/26 13:25:20;;;;;;;;;;;10.20;99.90;;;;;;4984974;28;19929;-79
2022/04/26 13:27:48;;;;;;;;;;;10.30;99.90;;;;;;4991402;28;19926;-79
2022/04/26 13:30:17;;;;;;;;;;;10.30;99.90;;;;;;5000153;28;19960;-79
2022/04/26 13:32:44;;;;;;;;;;;10.30;99.90;;;;;;4997772;28;19972;-78
2022/04/26 13:35:12;;;;;;;;;;;10.30;99.90;;;;;;5000712;28;20343;-79
2022/04/26 13:37:38;;;;;;;;;;;10.30;99.90;;;;;;4978359;28;19941;-79
2022/04/26 13:40:06;;;;;;;;;;;10.30;99.90;;;;;;4997439;28;19933;-80
2022/04/26 13:42:35;;;;;;;;;;;10.30;99.90;;;;;;4992974;28;19976;-79
2022/04/26 13:45:02;;;;;;;;;;;10.30;99.90;;;;;;4993272;28;19929;-80
2022/04/26 13:47:31;;;;;;;;;;;10.30;99.90;;;;;;4998909;28;19929;-80
2022/04/26 13:49:58;;;;;;;;;;;10.30;99.90;;;;;;4991593;28;19926;-77
2022/04/26 13:52:25;;;;;;;;;;;10.30;99.90;;;;;;4990479;28;20516;-79
2022/04/26 13:54:52;;;;;;;;;;;10.30;99.90;;;;;;4996975;28;19929;-80
2022/04/26 13:57:19;;;;;;;;;;;10.30;99.90;;;;;;4997072;28;19930;-79
2022/04/26 13:59:46;;;;;;;;;;;10.30;99.90;;;;;;4976318;28;19932;-80
2022/04/26 14:02:14;;;;;;;;;;;10.30;99.90;;;;;;4996244;28;19933;-79
2022/04/26 14:04:42;;;;;;;;;;;10.30;99.90;;;;;;4992660;28;19932;-79
2022/04/26 14:07:09;;;;;;;;;;;10.30;99.90;;;;;;4994597;28;19998;-79
2022/04/26 14:09:36;;;;;;;;;;;10.30;99.90;;;;;;4989034;28;19992;-79
2022/04/26 14:12:03;;;;;;;;;;;10.30;99.90;;;;;;4992182;28;19933;-78
2022/04/26 14:22:46;;;;;;;;;;;10.30;99.90;;;;;;4977188;28;20017;-77
2022/04/26 14:25:13;;;;;;;;;;;10.40;99.90;;;;;;4991884;28;19941;-80
2022/04/26 14:27:41;;;;;;;;;;;10.40;99.90;;;;;;4988863;28;19929;-80
2022/04/26 14:30:09;;;;;;;;;;;10.40;99.90;;;;;;4990705;28;20431;-79
2022/04/26 14:32:36;;;;;;;;;;;10.30;99.90;;;;;;4995890;28;20475;-79
2022/04/26 14:35:06;;;;;;;;;;;10.40;99.90;;;;;;4988568;28;19934;-78
2022/04/26 14:37:34;;;;;;;;;;;10.40;99.90;;;;;;4998738;28;20039;-79
2022/04/26 14:40:01;;;;;;;;;;;10.40;99.90;;;;;;4973873;28;20001;-79
2022/04/26 14:42:28;;;;;;;;;;;10.40;99.90;;;;;;4979091;28;19925;-78
2022/04/26 14:44:56;;;;;;;;;;;10.40;99.90;;;;;;4993671;28;19929;-79
2022/04/26 14:47:26;;;;;;;;;;;10.40;99.90;;;;;;4994004;28;19930;-79
2022/04/26 14:49:53;;;;;;;;;;;10.40;99.90;;;;;;4974985;28;19977;-81
2022/04/26 14:52:22;;;;;;;;;;;10.40;99.90;;;;;;4971306;28;19925;-81
2022/04/26 14:54:49;;;;;;;;;;;10.40;99.90;;;;;;4988774;28;20025;-80
2022/04/26 14:57:17;;;;;;;;;;;10.40;99.90;;;;;;4990880;28;19933;-78
2022/04/26 14:59:46;;;;;;;;;;;10.40;99.90;;;;;;4992588;28;20668;-79
2022/04/26 15:02:13;;;;;;;;;;;10.40;99.90;;;;;;4992067;28;19934;-80
2022/04/26 15:04:40;;;;;;;;;;;10.40;99.90;;;;;;4991797;28;19933;-77
2022/04/26 15:07:07;;;;;;;;;;;10.40;99.90;;;;;;4991201;28;19926;-80
2022/04/26 15:09:44;;;;;;;;;;;10.40;99.90;;;;;;4993910;28;20013;-79
2022/04/26 15:17:41;;;;;;;;;;;10.50;99.90;;;;;;4996996;28;20004;-80
2022/04/26 15:20:09;;;;;;;;;;;10.50;99.90;;;;;;4978705;28;19944;-80
2022/04/26 15:22:37;;;;;;;;;;;10.40;99.90;;;;;;4997774;28;19937;-80
2022/04/26 15:25:07;;;;;;;;;;;10.50;99.90;;;;;;4994342;28;19930;-81
2022/04/26 15:27:36;;;;;;;;;;;10.50;99.90;;;;;;4995957;28;19980;-78
2022/04/26 15:30:04;;;;;;;;;;;10.50;99.90;;;;;;5001268;28;19993;-81
2022/04/26 15:32:31;;;;;;;;;;;10.40;99.90;;;;;;5000669;28;19925;-82
2022/04/26 15:34:58;;;;;;;;;;;10.50;99.90;;;;;;4999774;28;19957;-77
2022/04/26 15:37:25;;;;;;;;;;;10.50;99.90;;;;;;4992952;28;20410;-78
2022/04/26 15:39:53;;;;;;;;;;;10.50;99.90;;;;;;4983063;28;19949;-80
2022/04/26 15:42:21;;;;;;;;;;;10.60;99.90;;;;;;5004025;28;19932;-80
2022/04/26 15:44:49;;;;;;;;;;;10.50;99.90;;;;;;4995996;28;20012;-80
2022/04/26 15:47:15;;;;;;;;;;;10.60;99.90;;;;;;5001063;28;19992;-80
2022/04/26 15:49:43;;;;;;;;;;;10.60;99.90;;;;;;5002843;28;19925;-80
2022/04/26 15:52:09;;;;;;;;;;;10.60;99.90;;;;;;4998360;28;19933;-78
2022/04/26 15:54:37;;;;;;;;;;;10.60;99.90;;;;;;4979662;28;19957;-80
2022/04/26 15:57:04;;;;;;;;;;;10.60;99.90;;;;;;4978208;28;19938;-79
2022/04/26 15:59:32;;;;;;;;;;;10.60;99.90;;;;;;4996155;28;19926;-79
2022/04/26 16:01:59;;;;;;;;;;;10.60;99.90;;;;;;4996927;28;20229;-80
2022/04/26 16:04:26;;;;;;;;;;;10.60;99.90;;;;;;4989250;28;19934;-79
2022/04/26 16:06:53;;;;;;;;;;;10.60;99.90;;;;;;4972689;28;19998;-82
2022/04/26 16:20:35;;;;;;;;;;;10.70;99.90;;;;;;4993493;28;19921;-80
2022/04/26 16:23:04;;;;;;;;;;;10.70;99.90;;;;;;4997050;28;20558;-82
2022/04/26 16:25:32;;;;;;;;;;;10.70;99.90;;;;;;4992236;28;19933;-82
2022/04/26 16:28:00;;;;;;;;;;;10.70;99.90;;;;;;4972622;28;19937;-84
2022/04/26 16:30:29;;;;;;;;;;;10.70;99.90;;;;;;4990966;28;19984;-81
2022/04/26 16:32:56;;;;;;;;;;;10.70;99.90;;;;;;4987067;28;20030;-84
2022/04/26 16:35:24;;;;;;;;;;;10.70;99.90;;;;;;4965399;28;19930;-82
2022/04/26 16:37:52;;;;;;;;;;;10.70;99.90;;;;;;4987390;28;19930;-79
2022/04/26 16:40:19;;;;;;;;;;;10.70;99.90;;;;;;4983852;28;19930;-80
2022/04/26 16:42:46;;;;;;;;;;;10.70;99.90;;;;;;4969315;28;19985;-82
2022/04/26 16:45:13;;;;;;;;;;;10.70;99.90;;;;;;4981059;28;20420;-80
2022/04/26 16:47:41;;;;;;;;;;;10.70;99.90;;;;;;4995745;28;20395;-83
2022/04/26 16:50:09;;;;;;;;;;;10.70;99.90;;;;;;4997711;28;19984;-83
2022/04/26 16:52:36;;;;;;;;;;;10.70;99.90;;;;;;4997876;28;19926;-82
2022/04/26 16:55:03;;;;;;;;;;;10.80;99.90;;;;;;4997530;28;19934;-80
2022/04/26 16:57:31;;;;;;;;;;;10.80;99.90;;;;;;4983770;28;20367;-83
2022/04/26 16:59:59;;;;;;;;;;;10.80;99.90;;;;;;5000428;28;19933;-80
2022/04/26 17:02:26;;;;;;;;;;;10.80;99.90;;;;;;5000011;28;19949;-80
2022/04/26 17:04:55;;;;;;;;;;;10.80;99.90;;;;;;4988327;28;19940;-80
2022/04/26 17:07:21;;;;;;;;;;;10.80;99.90;;;;;;4999596;28;19925;-80
2022/04/26 17:09:49;;;;;;;;;;;10.80;99.90;;;;;;4968391;28;19934;-81
2022/04/26 17:12:16;;;;;;;;;;;10.90;99.90;;;;;;4992357;28;19936;-90
2022/04/26 17:14:43;;;;;;;;;;;10.90;99.90;;;;;;4974869;28;19930;-84
2022/04/26 17:17:11;;;;;;;;;;;10.90;99.90;;;;;;4993327;28;19934;-81
2022/04/26 17:19:38;;;;;;;;;;;10.90;99.90;;;;;;4970785;28;19941;-83
2022/04/26 17:22:07;;;;;;;;;;;10.90;99.90;;;;;;4983843;28;19929;-83
2022/04/26 17:27:18;;;;;;;;;;;10.90;99.90;;;;;;4983208;28;19961;-81
2022/04/26 17:29:46;;;;;;;;;;;10.90;99.90;;;;;;4967928;28;20290;-82
2022/04/26 17:32:14;;;;;;;;;;;11.00;99.90;;;;;;4994581;28;19926;-82
2022/04/26 17:34:41;;;;;;;;;;;11.00;99.90;;;;;;4984943;28;20865;-82
2022/04/26 17:37:11;;;;;;;;;;;11.00;99.90;;;;;;4975076;28;19945;-81
2022/04/26 17:39:39;;;;;;;;;;;11.00;99.90;;;;;;4977756;28;20312;-83
2022/04/26 17:42:07;;;;;;;;;;;11.00;99.90;;;;;;4969705;28;19937;-83
2022/04/26 17:44:35;;;;;;;;;;;11.00;99.90;;;;;;4983766;28;19933;-81
2022/04/26 17:47:02;;;;;;;;;;;11.00;99.90;;;;;;4970421;28;19930;-83
2022/04/26 17:49:29;;;;;;;;;;;11.00;99.90;;;;;;4989548;28;19925;-82
2022/04/26 17:51:55;;;;;;;;;;;11.00;99.90;;;;;;4971128;28;19933;-83
2022/04/26 17:57:08;;;;;;;;;;;11.00;99.90;;;;;;4985013;28;19997;-85
2022/04/26 17:59:35;;;;;;;;;;;11.00;99.90;;;;;;4975111;28;19925;-81
2022/04/26 18:02:04;;;;;;;;;;;11.00;99.90;;;;;;4983970;28;19930;-82
2022/04/26 18:04:32;;;;;;;;;;;11.00;99.90;;;;;;4979568;28;19934;-83
2022/04/26 18:06:59;;;;;;;;;;;11.00;99.90;;;;;;4984657;28;19937;-81
2022/04/26 18:09:28;;;;;;;;;;;11.00;99.90;;;;;;4983454;28;19957;-83
2022/04/26 18:11:55;;;;;;;;;;;11.00;99.90;;;;;;4986744;28;20020;-83
2022/04/26 18:14:22;;;;;;;;;;;10.90;99.90;;;;;;4982805;28;19934;-81
2022/04/26 18:16:49;;;;;;;;;;;10.90;99.90;;;;;;4988099;28;20001;-83
2022/04/26 18:19:16;;;;;;;;;;;10.90;99.90;;;;;;4982841;28;19926;-82
2022/04/26 18:21:43;;;;;;;;;;;10.80;99.90;;;;;;4966364;28;21390;-80
2022/04/26 18:24:10;;;;;;;;;;;10.90;99.90;;;;;;4962988;28;20389;-82
2022/04/26 18:26:39;;;;;;;;;;;10.80;99.90;;;;;;4979305;28;19936;-79
2022/04/26 18:29:08;;;;;;;;;;;10.80;99.90;;;;;;5046937;23;21744;-90
2022/04/26 18:31:37;;;;;;;;;;;10.80;99.90;;;;;;4978414;28;20254;-90
2022/04/26 18:34:04;;;;;;;;;;;10.80;99.90;;;;;;4960089;28;19933;-90
2022/04/26 18:36:32;;;;;;;;;;;10.80;99.90;;;;;;4982822;28;19977;-90
2022/04/26 18:38:59;;;;;;;;;;;10.70;99.90;;;;;;4977340;28;19972;-90
2022/04/26 18:41:29;;;;;;;;;;;10.70;99.90;;;;;;4982850;28;19925;-90
2022/04/26 18:43:58;;;;;;;;;;;10.70;99.90;;;;;;4987041;28;19976;-93
2022/04/26 18:46:45;;;;;;;;;;;10.70;99.90;;;;;;4970277;28;19926;-90
2022/04/26 18:49:35;;;;;;;;;;;10.70;99.90;;;;;;4969460;28;20004;-89
2022/04/26 18:54:59;;;;;;;;;;;10.60;99.90;;;;;;4982091;28;20537;-91
2022/04/26 18:57:34;;;;;;;;;;;10.60;99.90;;;;;;4961217;28;19934;-91
2022/04/26 19:00:04;;;;;;;;;;;10.60;99.90;;;;;;4976781;28;20376;-89
2022/04/26 19:02:32;;;;;;;;;;;10.50;99.90;;;;;;4972066;28;19926;-91